Ashuelot River @ West Swanzey, Nh

Ashuelot River at Swanzey
 Total Drainage Area: 316 sq. miles 
 Drainage Area Controlled by Corps Dams: 147 sq. miles (47%) 
 Warning Flow/Stage: 2,920 cfs / 10.0 feet 
 Flood Flow/Stage: 3,850 cfs / 11.0 feet 
Date Time
(Eastern)
Stage
(ft)
Flow
(cfs)
CSM
(cfs / sq. mi.)
Water Temp.
(F)
Jun-25 01:45 am 7.07 670 2.1 21.4
Jun-25 12:45 am 7.07 670 2.1 21.5
Jun-24 11:45 pm 7.07 670 2.1 21.6
Jun-24 10:45 pm 7.07 670 2.1 21.8
Jun-24 09:45 pm 7.06 664 2.1 21.9
Jun-24 08:45 pm 7.06 664 2.1 22.0
Jun-24 07:45 pm 7.05 658 2.1 22.0
Jun-24 06:45 pm 7.05 658 2.1 22.0
Jun-24 05:45 pm 7.05 658 2.1 22.1
Jun-24 04:45 pm 7.05 658 2.1 22.0
Jun-24 03:45 pm 7.03 647 2.1 22.1
Jun-24 02:45 pm 7.04 652 2.1 22.1
Jun-24 01:45 pm 7.02 641 2.0 22.1
Jun-24 12:45 pm 7.01 636 2.0 22.1
Jun-24 11:45 am 7.00 630 2.0 21.9
Jun-24 10:45 am 6.98 619 2.0 21.7
Jun-24 09:45 am 6.95 602 1.9 21.5
Jun-24 08:45 am 6.93 591 1.9 21.4
Jun-24 07:45 am 6.90 575 1.8 21.5
Jun-24 06:45 am 6.87 558 1.8 21.6
Jun-24 05:45 am 6.84 542 1.7 21.8
Jun-24 04:45 am 6.83 536 1.7 22.0
Jun-24 03:45 am 6.82 531 1.7 22.2
Jun-24 02:45 am 6.83 536 1.7 22.3
Jun-24 01:45 am 6.82 531 1.7 22.3
Report Generated June 25, 2024 06:23 am